createdAt,value
2019-05-05T00:02:11.201Z,1.98
2019-05-05T00:05:04.939Z,2.09
2019-05-05T00:07:39.146Z,2.03
2019-05-05T00:10:16.654Z,2.02
2019-05-05T00:24:47.107Z,2.18
2019-05-05T00:27:34.704Z,2.10
2019-05-05T00:30:08.484Z,2.10
2019-05-05T01:13:45.612Z,1.76
2019-05-05T01:16:19.509Z,1.84
2019-05-05T01:18:55.485Z,1.83
2019-05-05T01:21:28.780Z,1.86
2019-05-05T02:21:08.007Z,1.67
2019-05-05T02:23:41.239Z,1.70
2019-05-05T02:26:15.406Z,1.72
2019-05-05T02:29:05.039Z,1.71
2019-05-05T02:32:06.201Z,1.73
2019-05-05T02:34:45.646Z,1.72
2019-05-05T02:37:19.533Z,1.63
2019-05-05T02:40:02.009Z,1.62
2019-05-05T02:42:29.672Z,1.56
2019-05-05T02:45:07.322Z,1.54
2019-05-05T02:48:25.017Z,1.60
2019-05-05T02:51:02.254Z,1.52
2019-05-05T03:05:50.112Z,1.60
2019-05-05T03:12:43.789Z,1.56
2019-05-05T03:19:33.974Z,1.49
2019-05-05T03:22:08.103Z,1.51
2019-05-05T03:24:44.532Z,1.43
2019-05-05T03:27:17.697Z,1.42
2019-05-05T03:49:33.897Z,1.10
2019-05-05T03:52:54.411Z,1.19
2019-05-05T03:55:28.835Z,1.06
2019-05-05T03:58:19.592Z,1.14
2019-05-05T04:01:34.573Z,1.21
2019-05-05T04:04:45.098Z,1.20
2019-05-05T04:07:19.783Z,1.15
2019-05-05T04:10:09.045Z,1.22
2019-05-05T04:12:43.493Z,1.15
2019-05-05T04:26:17.037Z,1.41
2019-05-05T04:28:50.957Z,1.39
2019-05-05T05:29:55.965Z,2.21
2019-05-05T05:32:29.646Z,2.29
2019-05-05T05:35:03.698Z,2.38
2019-05-05T05:38:24.108Z,2.53
2019-05-05T05:41:06.061Z,2.56
2019-05-05T05:44:05.017Z,2.62
2019-05-05T05:57:36.664Z,2.92
2019-05-05T06:00:25.064Z,3.09
2019-05-05T06:03:03.755Z,3.21
2019-05-05T06:05:38.030Z,3.28
2019-05-05T06:19:50.046Z,4.13
2019-05-05T06:22:29.199Z,4.17
2019-05-05T06:25:00.601Z,4.33
2019-05-05T06:27:38.338Z,4.32
2019-05-05T06:30:10.658Z,4.40
2019-05-05T06:32:45.757Z,4.40
2019-05-05T06:35:19.838Z,4.45
2019-05-05T06:37:56.955Z,4.52
2019-05-05T06:41:05.280Z,4.58
2019-05-05T06:51:11.507Z,5.02
2019-05-05T06:53:47.805Z,5.12
2019-05-05T07:07:04.897Z,5.53
2019-05-05T07:10:01.091Z,5.67
2019-05-05T07:12:40.403Z,5.75
2019-05-05T07:15:15.435Z,5.83
2019-05-05T07:18:25.511Z,5.95
2019-05-05T07:21:14.218Z,6.01
2019-05-05T07:24:01.349Z,6.06
2019-05-05T07:26:36.580Z,6.22
2019-05-05T07:29:10.652Z,6.58
2019-05-05T07:31:45.000Z,6.68
2019-05-05T07:35:14.549Z,6.89
2019-05-05T07:37:50.445Z,6.84
2019-05-05T07:40:25.232Z,6.92
2019-05-05T07:42:59.535Z,7.22
2019-05-05T07:45:47.657Z,7.34
2019-05-05T07:48:44.773Z,7.35
2019-05-05T07:51:19.882Z,7.43
2019-05-05T07:53:54.743Z,7.44
2019-05-05T07:56:30.161Z,7.57
2019-05-05T07:59:05.511Z,7.56
2019-05-05T08:01:38.808Z,7.65
2019-05-05T08:04:14.132Z,7.71
2019-05-05T08:06:47.792Z,7.80
2019-05-05T08:09:24.677Z,8.19
2019-05-05T08:11:56.868Z,8.55
2019-05-05T08:14:34.091Z,8.52
2019-05-05T08:28:15.706Z,8.01
2019-05-05T08:30:56.877Z,7.90
2019-05-05T08:34:29.025Z,7.87
2019-05-05T08:48:50.684Z,8.73
2019-05-05T08:51:26.985Z,8.91
2019-05-05T09:05:00.950Z,9.91
2019-05-05T09:07:35.974Z,9.87
2019-05-05T09:26:43.739Z,9.23
2019-05-05T09:29:26.373Z,9.37
2019-05-05T09:32:00.377Z,9.84
2019-05-05T09:34:54.098Z,10.21
2019-05-05T09:37:28.917Z,10.15
2019-05-05T09:56:14.981Z,10.30
2019-05-05T09:59:04.402Z,10.47
2019-05-05T10:01:56.858Z,10.34
2019-05-05T10:04:32.216Z,10.15
2019-05-05T10:07:06.367Z,10.13
2019-05-05T10:09:58.355Z,10.59
2019-05-05T10:16:00.688Z,10.82
2019-05-05T10:18:36.000Z,11.15
2019-05-05T10:21:24.453Z,11.44
2019-05-05T10:23:59.324Z,11.25
2019-05-05T10:26:34.443Z,11.92
2019-05-05T10:29:13.620Z,12.26
2019-05-05T10:32:30.299Z,11.23
2019-05-05T10:35:09.694Z,10.26
2019-05-05T10:48:18.449Z,8.57
2019-05-05T11:04:27.445Z,8.04
2019-05-05T11:07:04.215Z,8.15
2019-05-05T11:09:44.363Z,8.27
2019-05-05T11:12:18.766Z,8.41
2019-05-05T11:15:11.483Z,8.60
2019-05-05T11:17:57.858Z,8.56
2019-05-05T11:20:34.080Z,8.75
2019-05-05T11:23:14.554Z,9.03
2019-05-05T11:25:48.290Z,9.27
2019-05-05T11:28:33.769Z,9.47
2019-05-05T11:31:18.833Z,9.73
2019-05-05T11:34:15.595Z,9.73
2019-05-05T11:37:08.543Z,9.66
2019-05-05T11:39:44.567Z,9.68
2019-05-05T11:48:30.557Z,10.10
2019-05-05T11:51:04.512Z,10.37
2019-05-05T11:53:48.362Z,10.65
2019-05-05T11:56:23.812Z,10.64
2019-05-05T11:58:57.216Z,10.67
2019-05-05T12:02:13.955Z,10.68
2019-05-05T12:04:48.696Z,10.53
2019-05-05T12:07:23.738Z,10.26
2019-05-05T12:09:59.410Z,10.04
2019-05-05T12:12:33.770Z,9.90
2019-05-05T12:15:08.727Z,9.77
2019-05-05T12:28:40.090Z,9.86
2019-05-05T12:31:19.023Z,9.78
2019-05-05T12:38:13.305Z,9.41
2019-05-05T12:55:44.543Z,10.22
2019-05-05T12:58:22.609Z,10.91
2019-05-05T13:01:33.562Z,11.49
2019-05-05T13:04:08.590Z,11.20
2019-05-05T13:06:45.025Z,11.45
2019-05-05T13:09:24.423Z,11.56
2019-05-05T13:12:30.324Z,11.25
2019-05-05T13:15:09.023Z,11.15
2019-05-05T17:36:04.626Z,9.02
2019-05-05T17:38:47.542Z,8.89
2019-05-05T17:41:39.076Z,8.90
2019-05-05T17:44:26.413Z,8.83
2019-05-05T17:58:13.619Z,8.61
2019-05-05T18:00:56.782Z,8.57
2019-05-05T18:30:44.680Z,8.62
2019-05-05T18:45:25.014Z,8.29
2019-05-05T18:48:04.445Z,8.19
2019-05-05T18:50:37.604Z,8.06
2019-05-05T18:53:10.724Z,7.98
2019-05-05T18:55:45.563Z,7.84
2019-05-05T18:58:26.900Z,7.71
2019-05-05T19:01:24.153Z,7.62
2019-05-05T19:04:32.096Z,7.65
2019-05-05T19:07:35.635Z,7.66
2019-05-05T19:10:09.580Z,7.57
2019-05-05T19:12:44.485Z,7.52
2019-05-05T19:15:20.573Z,7.42
2019-05-05T19:18:01.545Z,7.38
2019-05-05T19:20:44.458Z,7.37
2019-05-05T19:23:19.406Z,7.28
2019-05-05T19:25:56.115Z,7.20
2019-05-05T19:32:38.094Z,7.20
2019-05-05T19:35:12.035Z,7.08
2019-05-05T19:38:15.549Z,6.99
2019-05-05T19:51:30.991Z,6.66
2019-05-05T19:54:06.707Z,6.48
2019-05-05T19:57:00.651Z,6.48
2019-05-05T19:59:35.789Z,6.38
2019-05-05T20:02:15.718Z,6.29
2019-05-05T20:04:49.961Z,6.18
2019-05-05T20:07:43.871Z,6.06
2019-05-05T20:10:18.143Z,6.01
2019-05-05T20:13:05.025Z,6.03
2019-05-05T20:16:07.916Z,5.90
2019-05-05T20:18:44.939Z,5.77
2019-05-05T20:21:24.496Z,5.75
2019-05-05T20:24:04.521Z,5.77
2019-05-05T20:26:39.830Z,5.68
2019-05-05T20:29:16.940Z,5.65
2019-05-05T20:31:51.436Z,5.60
2019-05-05T20:34:59.253Z,5.66
2019-05-05T20:38:04.878Z,5.67
2019-05-05T20:41:14.216Z,5.60
2019-05-05T20:43:59.110Z,5.65
2019-05-05T20:46:44.031Z,5.62
2019-05-05T20:49:18.865Z,5.66
2019-05-05T20:55:09.280Z,5.62
2019-05-05T20:57:55.014Z,5.66
2019-05-05T21:00:29.723Z,5.68
2019-05-05T21:03:05.195Z,5.66
2019-05-05T21:05:39.538Z,5.61
2019-05-05T21:08:25.563Z,5.68
2019-05-05T21:11:17.747Z,5.66
2019-05-05T21:13:54.224Z,5.58
2019-05-05T21:17:17.065Z,5.56
2019-05-05T21:34:53.039Z,5.13
2019-05-05T21:37:55.654Z,5.18
2019-05-05T21:47:25.640Z,5.09
2019-05-05T21:49:59.196Z,5.02
2019-05-05T21:52:39.238Z,4.97
2019-05-05T21:55:33.892Z,5.00
2019-05-05T21:58:25.390Z,4.90
2019-05-05T22:01:18.754Z,5.10
2019-05-05T22:03:53.791Z,4.97
2019-05-05T22:06:28.171Z,4.88
2019-05-05T22:09:20.389Z,4.77
2019-05-05T22:11:54.562Z,4.71
2019-05-05T22:14:29.955Z,4.65
2019-05-05T22:17:04.181Z,4.59
2019-05-05T22:19:44.547Z,4.68
2019-05-05T22:22:20.225Z,4.62
2019-05-05T22:24:54.684Z,4.62
2019-05-05T22:27:28.463Z,4.55
2019-05-05T22:30:09.525Z,4.46
2019-05-05T22:32:38.346Z,4.57
2019-05-05T22:35:23.978Z,4.55
2019-05-05T22:37:58.802Z,4.49
2019-05-05T22:40:56.461Z,4.45
2019-05-05T22:43:44.230Z,4.33
2019-05-05T22:46:28.929Z,4.35
2019-05-05T22:49:03.939Z,4.19
2019-05-05T22:51:40.470Z,4.26
2019-05-05T22:54:14.930Z,4.26
2019-05-05T22:57:06.812Z,4.20
2019-05-05T22:59:54.133Z,4.13
2019-05-05T23:02:33.935Z,4.01
2019-05-05T23:05:54.702Z,3.96
2019-05-05T23:08:29.110Z,3.92
2019-05-05T23:11:23.968Z,3.94
2019-05-05T23:14:16.556Z,3.91
2019-05-05T23:16:53.776Z,3.81
2019-05-05T23:19:30.907Z,3.80
2019-05-05T23:22:16.569Z,3.91
2019-05-05T23:24:55.423Z,3.89
2019-05-05T23:27:48.161Z,3.76
2019-05-05T23:30:41.163Z,3.85
2019-05-05T23:33:14.315Z,3.74
2019-05-05T23:35:48.376Z,3.67
2019-05-05T23:38:23.931Z,3.61
2019-05-05T23:40:57.759Z,3.59
2019-05-05T23:43:42.139Z,3.50
2019-05-05T23:46:16.272Z,3.40
2019-05-05T23:49:01.051Z,3.43
2019-05-05T23:51:36.557Z,3.39
2019-05-05T23:54:27.973Z,3.34
2019-05-05T23:57:19.537Z,3.35
